<?xml version="1.0" encoding="UTF-8" standalone="no" ?>
<gpx xmlns="http://www.topografix.com/GPX/1/1" xmlns:xsi="http://www.w3.org/2001/XMLSchema-instance" xsi:schemaLocation="http://www.topografix.com/GPX/1/1 http://www.topografix.com/GPX/1/1/gpx.xsd" version="1.1" creator="VisuGPX - https://www.visugpx.com">
  <metadata>
    <name>TPS 2017: la trace!</name>
    <desc><![CDATA[La traversée des pyrénées à ski édition 2017. Trace étape par étape (jour par jour).]]></desc>
  </metadata>
  <trk>
    <name><![CDATA[R7-03]]></name>
    <trkseg>
      <trkpt lat="42.81676" lon="-0.28778">
        <ele>2195.8</ele>
        <time>2017-03-22T06:24:47Z</time>
      </trkpt>
      <trkpt lat="42.81673" lon="-0.28779">
        <ele>2195.8</ele>
        <time>2017-03-22T06:25:15Z</time>
      </trkpt>
      <trkpt lat="42.81674" lon="-0.28779">
        <ele>2192.9</ele>
        <time>2017-03-22T06:25:21Z</time>
      </trkpt>
      <trkpt lat="42.81658" lon="-0.28815">
        <ele>2199.2</ele>
        <time>2017-03-22T07:06:43Z</time>
      </trkpt>
      <trkpt lat="42.81704" lon="-0.28785">
        <ele>2195.3</ele>
        <time>2017-03-22T07:06:53Z</time>
      </trkpt>
      <trkpt lat="42.81702" lon="-0.28785">
        <ele>2191</ele>
        <time>2017-03-22T07:06:56Z</time>
      </trkpt>
      <trkpt lat="42.81724" lon="-0.28793">
        <ele>2166</ele>
        <time>2017-03-22T07:07:36Z</time>
      </trkpt>
      <trkpt lat="42.8186" lon="-0.28692">
        <ele>2197.7</ele>
        <time>2017-03-22T07:13:18Z</time>
      </trkpt>
      <trkpt lat="42.81859" lon="-0.28692">
        <ele>2198.7</ele>
        <time>2017-03-22T07:13:21Z</time>
      </trkpt>
      <trkpt lat="42.81876" lon="-0.28667">
        <ele>2204</ele>
        <time>2017-03-22T07:14:35Z</time>
      </trkpt>
      <trkpt lat="42.81876" lon="-0.28667">
        <ele>2204.9</ele>
        <time>2017-03-22T07:14:56Z</time>
      </trkpt>
      <trkpt lat="42.81914" lon="-0.28632">
        <ele>2222.7</ele>
        <time>2017-03-22T07:17:45Z</time>
      </trkpt>
      <trkpt lat="42.81913" lon="-0.28632">
        <ele>2225.6</ele>
        <time>2017-03-22T07:17:47Z</time>
      </trkpt>
      <trkpt lat="42.81913" lon="-0.28631">
        <ele>2225.1</ele>
        <time>2017-03-22T07:17:48Z</time>
      </trkpt>
      <trkpt lat="42.81913" lon="-0.28632">
        <ele>2221.7</ele>
        <time>2017-03-22T07:17:52Z</time>
      </trkpt>
      <trkpt lat="42.81913" lon="-0.28632">
        <ele>2224.2</ele>
        <time>2017-03-22T07:17:55Z</time>
      </trkpt>
      <trkpt lat="42.81905" lon="-0.28628">
        <ele>2224.6</ele>
        <time>2017-03-22T07:19:16Z</time>
      </trkpt>
      <trkpt lat="42.81907" lon="-0.28633">
        <ele>2225.1</ele>
        <time>2017-03-22T07:19:59Z</time>
      </trkpt>
      <trkpt lat="42.81907" lon="-0.28632">
        <ele>2220.8</ele>
        <time>2017-03-22T07:20:08Z</time>
      </trkpt>
      <trkpt lat="42.81911" lon="-0.28633">
        <ele>2226.6</ele>
        <time>2017-03-22T07:20:41Z</time>
      </trkpt>
      <trkpt lat="42.81911" lon="-0.28618">
        <ele>2227</ele>
        <time>2017-03-22T07:20:59Z</time>
      </trkpt>
      <trkpt lat="42.81911" lon="-0.28618">
        <ele>2230.9</ele>
        <time>2017-03-22T07:21:00Z</time>
      </trkpt>
      <trkpt lat="42.81911" lon="-0.28617">
        <ele>2232.3</ele>
        <time>2017-03-22T07:21:03Z</time>
      </trkpt>
      <trkpt lat="42.81911" lon="-0.28617">
        <ele>2228</ele>
        <time>2017-03-22T07:21:04Z</time>
      </trkpt>
      <trkpt lat="42.8191" lon="-0.28611">
        <ele>2232.8</ele>
        <time>2017-03-22T07:21:19Z</time>
      </trkpt>
      <trkpt lat="42.81911" lon="-0.28612">
        <ele>2236.6</ele>
        <time>2017-03-22T07:21:22Z</time>
      </trkpt>
      <trkpt lat="42.81919" lon="-0.28598">
        <ele>2237.6</ele>
        <time>2017-03-22T07:21:55Z</time>
      </trkpt>
      <trkpt lat="42.81919" lon="-0.28598">
        <ele>2233.3</ele>
        <time>2017-03-22T07:22:02Z</time>
      </trkpt>
      <trkpt lat="42.81922" lon="-0.28587">
        <ele>2242.9</ele>
        <time>2017-03-22T07:22:20Z</time>
      </trkpt>
      <trkpt lat="42.81924" lon="-0.2859">
        <ele>2239.5</ele>
        <time>2017-03-22T07:22:24Z</time>
      </trkpt>
      <trkpt lat="42.81927" lon="-0.28581">
        <ele>2241</ele>
        <time>2017-03-22T07:22:40Z</time>
      </trkpt>
      <trkpt lat="42.81927" lon="-0.28581">
        <ele>2246.3</ele>
        <time>2017-03-22T07:22:41Z</time>
      </trkpt>
      <trkpt lat="42.81938" lon="-0.28554">
        <ele>2251.1</ele>
        <time>2017-03-22T07:23:38Z</time>
      </trkpt>
      <trkpt lat="42.81942" lon="-0.28554">
        <ele>2257.3</ele>
        <time>2017-03-22T07:23:44Z</time>
      </trkpt>
      <trkpt lat="42.81954" lon="-0.28543">
        <ele>2256.4</ele>
        <time>2017-03-22T07:24:27Z</time>
      </trkpt>
      <trkpt lat="42.81953" lon="-0.28543">
        <ele>2262.1</ele>
        <time>2017-03-22T07:24:28Z</time>
      </trkpt>
      <trkpt lat="42.81997" lon="-0.28486">
        <ele>2272.2</ele>
        <time>2017-03-22T07:26:35Z</time>
      </trkpt>
      <trkpt lat="42.8201" lon="-0.28482">
        <ele>2282.8</ele>
        <time>2017-03-22T07:27:09Z</time>
      </trkpt>
      <trkpt lat="42.82013" lon="-0.28475">
        <ele>2286.2</ele>
        <time>2017-03-22T07:27:22Z</time>
      </trkpt>
      <trkpt lat="42.82043" lon="-0.28442">
        <ele>2291.9</ele>
        <time>2017-03-22T07:29:30Z</time>
      </trkpt>
      <trkpt lat="42.82047" lon="-0.28449">
        <ele>2290</ele>
        <time>2017-03-22T07:30:46Z</time>
      </trkpt>
      <trkpt lat="42.82042" lon="-0.28447">
        <ele>2293.4</ele>
        <time>2017-03-22T07:30:54Z</time>
      </trkpt>
      <trkpt lat="42.82114" lon="-0.28436">
        <ele>2299.6</ele>
        <time>2017-03-22T07:32:45Z</time>
      </trkpt>
      <trkpt lat="42.82094" lon="-0.28568">
        <ele>2341</ele>
        <time>2017-03-22T07:38:25Z</time>
      </trkpt>
      <trkpt lat="42.82105" lon="-0.28619">
        <ele>2355.9</ele>
        <time>2017-03-22T07:40:47Z</time>
      </trkpt>
      <trkpt lat="42.82096" lon="-0.28617">
        <ele>2359.7</ele>
        <time>2017-03-22T07:41:10Z</time>
      </trkpt>
      <trkpt lat="42.82094" lon="-0.2862">
        <ele>2358.3</ele>
        <time>2017-03-22T07:41:16Z</time>
      </trkpt>
      <trkpt lat="42.8212" lon="-0.28662">
        <ele>2374.6</ele>
        <time>2017-03-22T07:43:19Z</time>
      </trkpt>
      <trkpt lat="42.82153" lon="-0.28646">
        <ele>2385.2</ele>
        <time>2017-03-22T07:45:16Z</time>
      </trkpt>
      <trkpt lat="42.82156" lon="-0.28672">
        <ele>2393.3</ele>
        <time>2017-03-22T07:46:47Z</time>
      </trkpt>
      <trkpt lat="42.82189" lon="-0.28692">
        <ele>2413.1</ele>
        <time>2017-03-22T07:49:19Z</time>
      </trkpt>
      <trkpt lat="42.82188" lon="-0.28693">
        <ele>2409.7</ele>
        <time>2017-03-22T07:49:21Z</time>
      </trkpt>
      <trkpt lat="42.82189" lon="-0.28692">
        <ele>2413.1</ele>
        <time>2017-03-22T07:49:22Z</time>
      </trkpt>
      <trkpt lat="42.82187" lon="-0.28692">
        <ele>2409.7</ele>
        <time>2017-03-22T07:49:37Z</time>
      </trkpt>
      <trkpt lat="42.82186" lon="-0.2869">
        <ele>2409.7</ele>
        <time>2017-03-22T07:50:00Z</time>
      </trkpt>
      <trkpt lat="42.82187" lon="-0.28692">
        <ele>2410.6</ele>
        <time>2017-03-22T07:50:37Z</time>
      </trkpt>
      <trkpt lat="42.82186" lon="-0.28692">
        <ele>2410.6</ele>
        <time>2017-03-22T07:51:07Z</time>
      </trkpt>
      <trkpt lat="42.82188" lon="-0.2869">
        <ele>2409.7</ele>
        <time>2017-03-22T07:51:41Z</time>
      </trkpt>
      <trkpt lat="42.82188" lon="-0.28691">
        <ele>2410.2</ele>
        <time>2017-03-22T07:52:02Z</time>
      </trkpt>
      <trkpt lat="42.82188" lon="-0.28691">
        <ele>2410.2</ele>
        <time>2017-03-22T07:52:24Z</time>
      </trkpt>
      <trkpt lat="42.82187" lon="-0.28692">
        <ele>2410.2</ele>
        <time>2017-03-22T07:52:48Z</time>
      </trkpt>
      <trkpt lat="42.82188" lon="-0.28691">
        <ele>2410.2</ele>
        <time>2017-03-22T07:53:46Z</time>
      </trkpt>
      <trkpt lat="42.82186" lon="-0.28692">
        <ele>2410.6</ele>
        <time>2017-03-22T07:54:13Z</time>
      </trkpt>
      <trkpt lat="42.82187" lon="-0.28691">
        <ele>2410.6</ele>
        <time>2017-03-22T07:54:43Z</time>
      </trkpt>
      <trkpt lat="42.82187" lon="-0.28693">
        <ele>2410.6</ele>
        <time>2017-03-22T07:55:10Z</time>
      </trkpt>
      <trkpt lat="42.82189" lon="-0.28692">
        <ele>2409.7</ele>
        <time>2017-03-22T07:55:38Z</time>
      </trkpt>
      <trkpt lat="42.8219" lon="-0.28696">
        <ele>2409.2</ele>
        <time>2017-03-22T07:56:03Z</time>
      </trkpt>
      <trkpt lat="42.82194" lon="-0.28693">
        <ele>2408.7</ele>
        <time>2017-03-22T07:57:12Z</time>
      </trkpt>
      <trkpt lat="42.82191" lon="-0.28694">
        <ele>2409.7</ele>
        <time>2017-03-22T07:57:33Z</time>
      </trkpt>
      <trkpt lat="42.82192" lon="-0.28696">
        <ele>2410.2</ele>
        <time>2017-03-22T07:57:55Z</time>
      </trkpt>
      <trkpt lat="42.82191" lon="-0.28695">
        <ele>2410.2</ele>
        <time>2017-03-22T07:58:19Z</time>
      </trkpt>
      <trkpt lat="42.82189" lon="-0.28697">
        <ele>2410.6</ele>
        <time>2017-03-22T07:58:41Z</time>
      </trkpt>
      <trkpt lat="42.82191" lon="-0.28695">
        <ele>2409.7</ele>
        <time>2017-03-22T07:59:31Z</time>
      </trkpt>
      <trkpt lat="42.82189" lon="-0.28693">
        <ele>2408.7</ele>
        <time>2017-03-22T07:59:52Z</time>
      </trkpt>
      <trkpt lat="42.8219" lon="-0.28693">
        <ele>2409.7</ele>
        <time>2017-03-22T08:00:20Z</time>
      </trkpt>
      <trkpt lat="42.82187" lon="-0.28693">
        <ele>2410.2</ele>
        <time>2017-03-22T08:00:38Z</time>
      </trkpt>
      <trkpt lat="42.82192" lon="-0.28696">
        <ele>2410.2</ele>
        <time>2017-03-22T08:01:25Z</time>
      </trkpt>
      <trkpt lat="42.82187" lon="-0.28693">
        <ele>2410.2</ele>
        <time>2017-03-22T08:03:09Z</time>
      </trkpt>
      <trkpt lat="42.82188" lon="-0.28696">
        <ele>2410.2</ele>
        <time>2017-03-22T08:03:32Z</time>
      </trkpt>
      <trkpt lat="42.82188" lon="-0.28694">
        <ele>2409.7</ele>
        <time>2017-03-22T08:03:59Z</time>
      </trkpt>
      <trkpt lat="42.82191" lon="-0.28696">
        <ele>2409.7</ele>
        <time>2017-03-22T08:04:49Z</time>
      </trkpt>
      <trkpt lat="42.82189" lon="-0.28697">
        <ele>2408.7</ele>
        <time>2017-03-22T08:05:08Z</time>
      </trkpt>
      <trkpt lat="42.82191" lon="-0.28694">
        <ele>2409.2</ele>
        <time>2017-03-22T08:05:28Z</time>
      </trkpt>
      <trkpt lat="42.82086" lon="-0.28437">
        <ele>2291.9</ele>
        <time>2017-03-22T08:08:20Z</time>
      </trkpt>
      <trkpt lat="42.8194" lon="-0.28557">
        <ele>2261.6</ele>
        <time>2017-03-22T08:09:24Z</time>
      </trkpt>
      <trkpt lat="42.81942" lon="-0.2854">
        <ele>2260.2</ele>
        <time>2017-03-22T08:09:37Z</time>
      </trkpt>
      <trkpt lat="42.81847" lon="-0.28682">
        <ele>2202.5</ele>
        <time>2017-03-22T08:11:02Z</time>
      </trkpt>
      <trkpt lat="42.81838" lon="-0.28758">
        <ele>2191.5</ele>
        <time>2017-03-22T08:11:51Z</time>
      </trkpt>
      <trkpt lat="42.81838" lon="-0.28754">
        <ele>2192.4</ele>
        <time>2017-03-22T08:12:13Z</time>
      </trkpt>
      <trkpt lat="42.81834" lon="-0.28773">
        <ele>2189.5</ele>
        <time>2017-03-22T08:12:50Z</time>
      </trkpt>
      <trkpt lat="42.81828" lon="-0.28771">
        <ele>2185.2</ele>
        <time>2017-03-22T08:12:53Z</time>
      </trkpt>
      <trkpt lat="42.81812" lon="-0.28829">
        <ele>2175.6</ele>
        <time>2017-03-22T08:13:15Z</time>
      </trkpt>
      <trkpt lat="42.81773" lon="-0.28825">
        <ele>2155.9</ele>
        <time>2017-03-22T08:13:26Z</time>
      </trkpt>
      <trkpt lat="42.81771" lon="-0.29015">
        <ele>2153.5</ele>
        <time>2017-03-22T08:16:51Z</time>
      </trkpt>
      <trkpt lat="42.81771" lon="-0.29014">
        <ele>2154.9</ele>
        <time>2017-03-22T08:16:54Z</time>
      </trkpt>
      <trkpt lat="42.81771" lon="-0.29019">
        <ele>2155.9</ele>
        <time>2017-03-22T08:17:11Z</time>
      </trkpt>
      <trkpt lat="42.81771" lon="-0.29018">
        <ele>2155.4</ele>
        <time>2017-03-22T08:17:35Z</time>
      </trkpt>
      <trkpt lat="42.81769" lon="-0.29021">
        <ele>2154.9</ele>
        <time>2017-03-22T08:18:01Z</time>
      </trkpt>
      <trkpt lat="42.81771" lon="-0.2902">
        <ele>2153.5</ele>
        <time>2017-03-22T08:18:19Z</time>
      </trkpt>
      <trkpt lat="42.8177" lon="-0.2902">
        <ele>2153</ele>
        <time>2017-03-22T08:18:40Z</time>
      </trkpt>
      <trkpt lat="42.81771" lon="-0.29019">
        <ele>2152.1</ele>
        <time>2017-03-22T08:19:05Z</time>
      </trkpt>
      <trkpt lat="42.81771" lon="-0.29019">
        <ele>2151.6</ele>
        <time>2017-03-22T08:19:30Z</time>
      </trkpt>
      <trkpt lat="42.81771" lon="-0.29019">
        <ele>2151.6</ele>
        <time>2017-03-22T08:19:52Z</time>
      </trkpt>
      <trkpt lat="42.81771" lon="-0.29021">
        <ele>2153</ele>
        <time>2017-03-22T08:20:21Z</time>
      </trkpt>
      <trkpt lat="42.81772" lon="-0.29021">
        <ele>2154</ele>
        <time>2017-03-22T08:20:43Z</time>
      </trkpt>
      <trkpt lat="42.81771" lon="-0.29019">
        <ele>2153.5</ele>
        <time>2017-03-22T08:21:13Z</time>
      </trkpt>
      <trkpt lat="42.81772" lon="-0.29018">
        <ele>2154</ele>
        <time>2017-03-22T08:21:36Z</time>
      </trkpt>
      <trkpt lat="42.81773" lon="-0.2902">
        <ele>2151.6</ele>
        <time>2017-03-22T08:22:08Z</time>
      </trkpt>
      <trkpt lat="42.81771" lon="-0.29361">
        <ele>2161.7</ele>
        <time>2017-03-22T08:28:37Z</time>
      </trkpt>
      <trkpt lat="42.81774" lon="-0.29359">
        <ele>2161.2</ele>
        <time>2017-03-22T08:28:59Z</time>
      </trkpt>
      <trkpt lat="42.81774" lon="-0.29361">
        <ele>2165</ele>
        <time>2017-03-22T08:29:37Z</time>
      </trkpt>
      <trkpt lat="42.81774" lon="-0.29361">
        <ele>2163.1</ele>
        <time>2017-03-22T08:29:40Z</time>
      </trkpt>
      <trkpt lat="42.81765" lon="-0.29477">
        <ele>2161.7</ele>
        <time>2017-03-22T08:31:30Z</time>
      </trkpt>
      <trkpt lat="42.81758" lon="-0.29458">
        <ele>2159.3</ele>
        <time>2017-03-22T08:32:13Z</time>
      </trkpt>
      <trkpt lat="42.81756" lon="-0.29464">
        <ele>2158.8</ele>
        <time>2017-03-22T08:32:28Z</time>
      </trkpt>
      <trkpt lat="42.81754" lon="-0.29425">
        <ele>2148.2</ele>
        <time>2017-03-22T08:33:10Z</time>
      </trkpt>
      <trkpt lat="42.81749" lon="-0.29426">
        <ele>2146.3</ele>
        <time>2017-03-22T08:33:24Z</time>
      </trkpt>
      <trkpt lat="42.81726" lon="-0.29542">
        <ele>2136.2</ele>
        <time>2017-03-22T08:35:12Z</time>
      </trkpt>
      <trkpt lat="42.81727" lon="-0.29544">
        <ele>2136.7</ele>
        <time>2017-03-22T08:35:34Z</time>
      </trkpt>
      <trkpt lat="42.81723" lon="-0.29546">
        <ele>2134.3</ele>
        <time>2017-03-22T08:36:04Z</time>
      </trkpt>
      <trkpt lat="42.82001" lon="-0.30567">
        <ele>2011.7</ele>
        <time>2017-03-22T08:46:11Z</time>
      </trkpt>
      <trkpt lat="42.82013" lon="-0.30748">
        <ele>2005.9</ele>
        <time>2017-03-22T08:49:45Z</time>
      </trkpt>
      <trkpt lat="42.82014" lon="-0.30743">
        <ele>2005</ele>
        <time>2017-03-22T08:50:55Z</time>
      </trkpt>
      <trkpt lat="42.8201" lon="-0.30745">
        <ele>2005.9</ele>
        <time>2017-03-22T08:51:22Z</time>
      </trkpt>
      <trkpt lat="42.82016" lon="-0.30744">
        <ele>2005.9</ele>
        <time>2017-03-22T08:51:42Z</time>
      </trkpt>
      <trkpt lat="42.81982" lon="-0.3084">
        <ele>1998.2</ele>
        <time>2017-03-22T08:53:53Z</time>
      </trkpt>
      <trkpt lat="42.81981" lon="-0.30828">
        <ele>1998.7</ele>
        <time>2017-03-22T08:54:34Z</time>
      </trkpt>
      <trkpt lat="42.82002" lon="-0.31172">
        <ele>1953.1</ele>
        <time>2017-03-22T09:00:48Z</time>
      </trkpt>
      <trkpt lat="42.82002" lon="-0.31164">
        <ele>1953.1</ele>
        <time>2017-03-22T09:01:01Z</time>
      </trkpt>
      <trkpt lat="42.82002" lon="-0.31205">
        <ele>1946.8</ele>
        <time>2017-03-22T09:02:00Z</time>
      </trkpt>
      <trkpt lat="42.82004" lon="-0.31202">
        <ele>1946.8</ele>
        <time>2017-03-22T09:02:22Z</time>
      </trkpt>
      <trkpt lat="42.81996" lon="-0.31202">
        <ele>1946.8</ele>
        <time>2017-03-22T09:03:21Z</time>
      </trkpt>
      <trkpt lat="42.81998" lon="-0.31197">
        <ele>1946.8</ele>
        <time>2017-03-22T09:03:58Z</time>
      </trkpt>
      <trkpt lat="42.81999" lon="-0.31202">
        <ele>1947.3</ele>
        <time>2017-03-22T09:04:38Z</time>
      </trkpt>
      <trkpt lat="42.81999" lon="-0.31201">
        <ele>1947.8</ele>
        <time>2017-03-22T09:05:01Z</time>
      </trkpt>
      <trkpt lat="42.81985" lon="-0.31206">
        <ele>1948.3</ele>
        <time>2017-03-22T09:06:50Z</time>
      </trkpt>
      <trkpt lat="42.81984" lon="-0.31203">
        <ele>1948.7</ele>
        <time>2017-03-22T09:08:05Z</time>
      </trkpt>
      <trkpt lat="42.8198" lon="-0.31207">
        <ele>1949.2</ele>
        <time>2017-03-22T09:08:44Z</time>
      </trkpt>
      <trkpt lat="42.81984" lon="-0.31206">
        <ele>1950.2</ele>
        <time>2017-03-22T09:09:00Z</time>
      </trkpt>
      <trkpt lat="42.81977" lon="-0.31215">
        <ele>1950.7</ele>
        <time>2017-03-22T09:09:34Z</time>
      </trkpt>
      <trkpt lat="42.81999" lon="-0.31203">
        <ele>1950.2</ele>
        <time>2017-03-22T09:10:08Z</time>
      </trkpt>
      <trkpt lat="42.81993" lon="-0.31206">
        <ele>1950.7</ele>
        <time>2017-03-22T09:10:34Z</time>
      </trkpt>
      <trkpt lat="42.81998" lon="-0.31202">
        <ele>1951.1</ele>
        <time>2017-03-22T09:11:36Z</time>
      </trkpt>
      <trkpt lat="42.81994" lon="-0.31205">
        <ele>1949.7</ele>
        <time>2017-03-22T09:11:54Z</time>
      </trkpt>
      <trkpt lat="42.82006" lon="-0.31219">
        <ele>1946.8</ele>
        <time>2017-03-22T09:12:28Z</time>
      </trkpt>
      <trkpt lat="42.82007" lon="-0.3141">
        <ele>1916.5</ele>
        <time>2017-03-22T09:15:25Z</time>
      </trkpt>
      <trkpt lat="42.81993" lon="-0.31455">
        <ele>1908.4</ele>
        <time>2017-03-22T09:16:52Z</time>
      </trkpt>
      <trkpt lat="42.81996" lon="-0.3145">
        <ele>1908.8</ele>
        <time>2017-03-22T09:17:23Z</time>
      </trkpt>
      <trkpt lat="42.81987" lon="-0.31456">
        <ele>1908.8</ele>
        <time>2017-03-22T09:18:18Z</time>
      </trkpt>
      <trkpt lat="42.81988" lon="-0.31457">
        <ele>1908.4</ele>
        <time>2017-03-22T09:18:37Z</time>
      </trkpt>
      <trkpt lat="42.81985" lon="-0.31464">
        <ele>1908.8</ele>
        <time>2017-03-22T09:19:05Z</time>
      </trkpt>
      <trkpt lat="42.81996" lon="-0.31458">
        <ele>1909.3</ele>
        <time>2017-03-22T09:19:36Z</time>
      </trkpt>
      <trkpt lat="42.8199" lon="-0.31463">
        <ele>1909.3</ele>
        <time>2017-03-22T09:19:59Z</time>
      </trkpt>
      <trkpt lat="42.82" lon="-0.31455">
        <ele>1910.3</ele>
        <time>2017-03-22T09:20:38Z</time>
      </trkpt>
      <trkpt lat="42.81992" lon="-0.3146">
        <ele>1909.8</ele>
        <time>2017-03-22T09:21:31Z</time>
      </trkpt>
      <trkpt lat="42.81997" lon="-0.31458">
        <ele>1909.8</ele>
        <time>2017-03-22T09:21:44Z</time>
      </trkpt>
      <trkpt lat="42.81996" lon="-0.31459">
        <ele>1909.8</ele>
        <time>2017-03-22T09:21:59Z</time>
      </trkpt>
      <trkpt lat="42.82" lon="-0.31451">
        <ele>1908.4</ele>
        <time>2017-03-22T09:22:34Z</time>
      </trkpt>
      <trkpt lat="42.82152" lon="-0.32103">
        <ele>1822.3</ele>
        <time>2017-03-22T09:34:48Z</time>
      </trkpt>
      <trkpt lat="42.82125" lon="-0.32429">
        <ele>1781</ele>
        <time>2017-03-22T09:39:32Z</time>
      </trkpt>
      <trkpt lat="42.82178" lon="-0.3245">
        <ele>1767.5</ele>
        <time>2017-03-22T09:41:49Z</time>
      </trkpt>
      <trkpt lat="42.82178" lon="-0.32453">
        <ele>1768</ele>
        <time>2017-03-22T09:42:10Z</time>
      </trkpt>
      <trkpt lat="42.82181" lon="-0.32451">
        <ele>1768</ele>
        <time>2017-03-22T09:42:40Z</time>
      </trkpt>
      <trkpt lat="42.82175" lon="-0.32456">
        <ele>1769.9</ele>
        <time>2017-03-22T09:43:21Z</time>
      </trkpt>
      <trkpt lat="42.82178" lon="-0.32458">
        <ele>1769.9</ele>
        <time>2017-03-22T09:43:52Z</time>
      </trkpt>
      <trkpt lat="42.82164" lon="-0.32483">
        <ele>1769.9</ele>
        <time>2017-03-22T09:44:26Z</time>
      </trkpt>
      <trkpt lat="42.82181" lon="-0.32452">
        <ele>1770.4</ele>
        <time>2017-03-22T09:45:23Z</time>
      </trkpt>
      <trkpt lat="42.82179" lon="-0.32451">
        <ele>1770.4</ele>
        <time>2017-03-22T09:45:51Z</time>
      </trkpt>
      <trkpt lat="42.82178" lon="-0.32454">
        <ele>1770.9</ele>
        <time>2017-03-22T09:46:24Z</time>
      </trkpt>
      <trkpt lat="42.82185" lon="-0.32445">
        <ele>1771.9</ele>
        <time>2017-03-22T09:47:25Z</time>
      </trkpt>
      <trkpt lat="42.82188" lon="-0.32457">
        <ele>1771.9</ele>
        <time>2017-03-22T09:48:54Z</time>
      </trkpt>
      <trkpt lat="42.82187" lon="-0.32452">
        <ele>1771.9</ele>
        <time>2017-03-22T09:49:20Z</time>
      </trkpt>
      <trkpt lat="42.82185" lon="-0.32457">
        <ele>1772.3</ele>
        <time>2017-03-22T09:49:51Z</time>
      </trkpt>
      <trkpt lat="42.82185" lon="-0.32453">
        <ele>1773.3</ele>
        <time>2017-03-22T09:50:21Z</time>
      </trkpt>
      <trkpt lat="42.8218" lon="-0.32463">
        <ele>1772.8</ele>
        <time>2017-03-22T09:50:51Z</time>
      </trkpt>
      <trkpt lat="42.8224" lon="-0.32447">
        <ele>1794</ele>
        <time>2017-03-22T09:55:50Z</time>
      </trkpt>
      <trkpt lat="42.8224" lon="-0.32448">
        <ele>1793.5</ele>
        <time>2017-03-22T09:56:02Z</time>
      </trkpt>
      <trkpt lat="42.82239" lon="-0.32445">
        <ele>1795.4</ele>
        <time>2017-03-22T09:56:13Z</time>
      </trkpt>
      <trkpt lat="42.82234" lon="-0.32468">
        <ele>1798.3</ele>
        <time>2017-03-22T09:57:04Z</time>
      </trkpt>
      <trkpt lat="42.82235" lon="-0.32468">
        <ele>1799.2</ele>
        <time>2017-03-22T09:57:17Z</time>
      </trkpt>
      <trkpt lat="42.82231" lon="-0.32487">
        <ele>1801.7</ele>
        <time>2017-03-22T09:57:44Z</time>
      </trkpt>
      <trkpt lat="42.82235" lon="-0.32487">
        <ele>1801.7</ele>
        <time>2017-03-22T09:58:10Z</time>
      </trkpt>
      <trkpt lat="42.82251" lon="-0.32442">
        <ele>1807.4</ele>
        <time>2017-03-22T09:59:30Z</time>
      </trkpt>
      <trkpt lat="42.82269" lon="-0.32476">
        <ele>1816.1</ele>
        <time>2017-03-22T10:00:53Z</time>
      </trkpt>
      <trkpt lat="42.8227" lon="-0.32474">
        <ele>1817</ele>
        <time>2017-03-22T10:01:07Z</time>
      </trkpt>
      <trkpt lat="42.8227" lon="-0.32477">
        <ele>1819</ele>
        <time>2017-03-22T10:01:21Z</time>
      </trkpt>
      <trkpt lat="42.8227" lon="-0.32476">
        <ele>1819</ele>
        <time>2017-03-22T10:01:27Z</time>
      </trkpt>
      <trkpt lat="42.82276" lon="-0.32479">
        <ele>1821.8</ele>
        <time>2017-03-22T10:01:58Z</time>
      </trkpt>
      <trkpt lat="42.82274" lon="-0.32475">
        <ele>1822.8</ele>
        <time>2017-03-22T10:02:21Z</time>
      </trkpt>
      <trkpt lat="42.82272" lon="-0.3248">
        <ele>1821.8</ele>
        <time>2017-03-22T10:02:45Z</time>
      </trkpt>
      <trkpt lat="42.82324" lon="-0.32538">
        <ele>1844.9</ele>
        <time>2017-03-22T10:06:54Z</time>
      </trkpt>
      <trkpt lat="42.82354" lon="-0.32532">
        <ele>1856.9</ele>
        <time>2017-03-22T10:09:14Z</time>
      </trkpt>
      <trkpt lat="42.82354" lon="-0.32532">
        <ele>1857.4</ele>
        <time>2017-03-22T10:09:50Z</time>
      </trkpt>
      <trkpt lat="42.82352" lon="-0.32533">
        <ele>1857.9</ele>
        <time>2017-03-22T10:10:19Z</time>
      </trkpt>
      <trkpt lat="42.82353" lon="-0.3253">
        <ele>1856.9</ele>
        <time>2017-03-22T10:10:31Z</time>
      </trkpt>
      <trkpt lat="42.82358" lon="-0.32532">
        <ele>1857.4</ele>
        <time>2017-03-22T10:10:58Z</time>
      </trkpt>
      <trkpt lat="42.82353" lon="-0.3253">
        <ele>1858.4</ele>
        <time>2017-03-22T10:11:47Z</time>
      </trkpt>
      <trkpt lat="42.82356" lon="-0.32533">
        <ele>1859.8</ele>
        <time>2017-03-22T10:12:10Z</time>
      </trkpt>
      <trkpt lat="42.82355" lon="-0.32533">
        <ele>1859.3</ele>
        <time>2017-03-22T10:12:12Z</time>
      </trkpt>
      <trkpt lat="42.82356" lon="-0.3253">
        <ele>1860.8</ele>
        <time>2017-03-22T10:12:33Z</time>
      </trkpt>
      <trkpt lat="42.82486" lon="-0.32606">
        <ele>1878.6</ele>
        <time>2017-03-22T10:20:50Z</time>
      </trkpt>
      <trkpt lat="42.82485" lon="-0.32601">
        <ele>1881</ele>
        <time>2017-03-22T10:21:09Z</time>
      </trkpt>
      <trkpt lat="42.82483" lon="-0.32606">
        <ele>1880.5</ele>
        <time>2017-03-22T10:21:33Z</time>
      </trkpt>
      <trkpt lat="42.82484" lon="-0.32598">
        <ele>1879.5</ele>
        <time>2017-03-22T10:21:48Z</time>
      </trkpt>
      <trkpt lat="42.82486" lon="-0.32598">
        <ele>1880</ele>
        <time>2017-03-22T10:22:15Z</time>
      </trkpt>
      <trkpt lat="42.82483" lon="-0.32597">
        <ele>1879.5</ele>
        <time>2017-03-22T10:22:51Z</time>
      </trkpt>
      <trkpt lat="42.82482" lon="-0.326">
        <ele>1880.5</ele>
        <time>2017-03-22T10:23:13Z</time>
      </trkpt>
      <trkpt lat="42.82479" lon="-0.32599">
        <ele>1879.5</ele>
        <time>2017-03-22T10:23:42Z</time>
      </trkpt>
      <trkpt lat="42.82481" lon="-0.326">
        <ele>1879</ele>
        <time>2017-03-22T10:24:13Z</time>
      </trkpt>
      <trkpt lat="42.82478" lon="-0.32604">
        <ele>1878.6</ele>
        <time>2017-03-22T10:24:36Z</time>
      </trkpt>
      <trkpt lat="42.82479" lon="-0.32601">
        <ele>1879</ele>
        <time>2017-03-22T10:25:02Z</time>
      </trkpt>
      <trkpt lat="42.82477" lon="-0.32603">
        <ele>1878.6</ele>
        <time>2017-03-22T10:25:28Z</time>
      </trkpt>
      <trkpt lat="42.8248" lon="-0.32606">
        <ele>1878.1</ele>
        <time>2017-03-22T10:25:50Z</time>
      </trkpt>
      <trkpt lat="42.82479" lon="-0.32599">
        <ele>1877.1</ele>
        <time>2017-03-22T10:26:38Z</time>
      </trkpt>
      <trkpt lat="42.82479" lon="-0.32608">
        <ele>1876.2</ele>
        <time>2017-03-22T10:27:18Z</time>
      </trkpt>
      <trkpt lat="42.82483" lon="-0.32608">
        <ele>1875.7</ele>
        <time>2017-03-22T10:27:30Z</time>
      </trkpt>
      <trkpt lat="42.82482" lon="-0.32602">
        <ele>1877.6</ele>
        <time>2017-03-22T10:27:46Z</time>
      </trkpt>
      <trkpt lat="42.82481" lon="-0.32605">
        <ele>1877.1</ele>
        <time>2017-03-22T10:28:05Z</time>
      </trkpt>
      <trkpt lat="42.82481" lon="-0.32602">
        <ele>1876.6</ele>
        <time>2017-03-22T10:28:44Z</time>
      </trkpt>
      <trkpt lat="42.82484" lon="-0.32606">
        <ele>1876.2</ele>
        <time>2017-03-22T10:29:14Z</time>
      </trkpt>
      <trkpt lat="42.82486" lon="-0.32604">
        <ele>1874.7</ele>
        <time>2017-03-22T10:29:46Z</time>
      </trkpt>
      <trkpt lat="42.82482" lon="-0.32606">
        <ele>1876.2</ele>
        <time>2017-03-22T10:30:33Z</time>
      </trkpt>
      <trkpt lat="42.82483" lon="-0.32608">
        <ele>1874.2</ele>
        <time>2017-03-22T10:31:01Z</time>
      </trkpt>
      <trkpt lat="42.82483" lon="-0.32605">
        <ele>1875.2</ele>
        <time>2017-03-22T10:31:03Z</time>
      </trkpt>
      <trkpt lat="42.82537" lon="-0.3265">
        <ele>1887.7</ele>
        <time>2017-03-22T10:32:57Z</time>
      </trkpt>
      <trkpt lat="42.82532" lon="-0.32656">
        <ele>1888.7</ele>
        <time>2017-03-22T10:33:16Z</time>
      </trkpt>
      <trkpt lat="42.82535" lon="-0.32657">
        <ele>1889.1</ele>
        <time>2017-03-22T10:33:38Z</time>
      </trkpt>
      <trkpt lat="42.82531" lon="-0.32659">
        <ele>1889.1</ele>
        <time>2017-03-22T10:34:03Z</time>
      </trkpt>
      <trkpt lat="42.82536" lon="-0.32656">
        <ele>1888.7</ele>
        <time>2017-03-22T10:34:46Z</time>
      </trkpt>
      <trkpt lat="42.82533" lon="-0.32656">
        <ele>1890.1</ele>
        <time>2017-03-22T10:35:12Z</time>
      </trkpt>
      <trkpt lat="42.82534" lon="-0.32657">
        <ele>1889.6</ele>
        <time>2017-03-22T10:35:55Z</time>
      </trkpt>
      <trkpt lat="42.82533" lon="-0.32654">
        <ele>1890.1</ele>
        <time>2017-03-22T10:36:16Z</time>
      </trkpt>
      <trkpt lat="42.82529" lon="-0.32656">
        <ele>1889.6</ele>
        <time>2017-03-22T10:36:42Z</time>
      </trkpt>
      <trkpt lat="42.82536" lon="-0.32646">
        <ele>1889.1</ele>
        <time>2017-03-22T10:38:34Z</time>
      </trkpt>
      <trkpt lat="42.82535" lon="-0.32652">
        <ele>1888.2</ele>
        <time>2017-03-22T10:38:59Z</time>
      </trkpt>
      <trkpt lat="42.82536" lon="-0.32652">
        <ele>1888.2</ele>
        <time>2017-03-22T10:39:28Z</time>
      </trkpt>
      <trkpt lat="42.82534" lon="-0.32659">
        <ele>1888.2</ele>
        <time>2017-03-22T10:39:52Z</time>
      </trkpt>
      <trkpt lat="42.82538" lon="-0.32657">
        <ele>1887.2</ele>
        <time>2017-03-22T10:40:26Z</time>
      </trkpt>
      <trkpt lat="42.82531" lon="-0.32653">
        <ele>1888.2</ele>
        <time>2017-03-22T10:40:48Z</time>
      </trkpt>
      <trkpt lat="42.82539" lon="-0.32655">
        <ele>1886.7</ele>
        <time>2017-03-22T10:42:01Z</time>
      </trkpt>
      <trkpt lat="42.82537" lon="-0.32649">
        <ele>1886.2</ele>
        <time>2017-03-22T10:42:27Z</time>
      </trkpt>
      <trkpt lat="42.82544" lon="-0.32654">
        <ele>1886.7</ele>
        <time>2017-03-22T10:43:18Z</time>
      </trkpt>
      <trkpt lat="42.82541" lon="-0.3265">
        <ele>1885.3</ele>
        <time>2017-03-22T10:43:38Z</time>
      </trkpt>
      <trkpt lat="42.82544" lon="-0.32651">
        <ele>1885.8</ele>
        <time>2017-03-22T10:44:05Z</time>
      </trkpt>
      <trkpt lat="42.82529" lon="-0.32652">
        <ele>1887.7</ele>
        <time>2017-03-22T10:45:01Z</time>
      </trkpt>
      <trkpt lat="42.82527" lon="-0.32646">
        <ele>1888.2</ele>
        <time>2017-03-22T10:45:24Z</time>
      </trkpt>
      <trkpt lat="42.82629" lon="-0.32752">
        <ele>1934.8</ele>
        <time>2017-03-22T10:51:54Z</time>
      </trkpt>
      <trkpt lat="42.82626" lon="-0.32744">
        <ele>1934.3</ele>
        <time>2017-03-22T10:52:17Z</time>
      </trkpt>
      <trkpt lat="42.82659" lon="-0.327">
        <ele>1945.4</ele>
        <time>2017-03-22T10:55:04Z</time>
      </trkpt>
      <trkpt lat="42.82652" lon="-0.32674">
        <ele>1945.9</ele>
        <time>2017-03-22T10:56:01Z</time>
      </trkpt>
      <trkpt lat="42.82654" lon="-0.32678">
        <ele>1944.9</ele>
        <time>2017-03-22T10:56:17Z</time>
      </trkpt>
      <trkpt lat="42.82665" lon="-0.32648">
        <ele>1948.7</ele>
        <time>2017-03-22T10:57:34Z</time>
      </trkpt>
      <trkpt lat="42.82662" lon="-0.32651">
        <ele>1949.7</ele>
        <time>2017-03-22T10:57:42Z</time>
      </trkpt>
      <trkpt lat="42.82698" lon="-0.32568">
        <ele>1967</ele>
        <time>2017-03-22T11:00:39Z</time>
      </trkpt>
      <trkpt lat="42.82693" lon="-0.32561">
        <ele>1967.5</ele>
        <time>2017-03-22T11:01:07Z</time>
      </trkpt>
      <trkpt lat="42.82696" lon="-0.32566">
        <ele>1967</ele>
        <time>2017-03-22T11:01:42Z</time>
      </trkpt>
      <trkpt lat="42.82785" lon="-0.32556">
        <ele>2004</ele>
        <time>2017-03-22T11:06:55Z</time>
      </trkpt>
      <trkpt lat="42.82792" lon="-0.32566">
        <ele>2007.9</ele>
        <time>2017-03-22T11:07:33Z</time>
      </trkpt>
      <trkpt lat="42.82787" lon="-0.32561">
        <ele>2009.3</ele>
        <time>2017-03-22T11:07:58Z</time>
      </trkpt>
      <trkpt lat="42.82793" lon="-0.32554">
        <ele>2010.3</ele>
        <time>2017-03-22T11:08:19Z</time>
      </trkpt>
      <trkpt lat="42.82797" lon="-0.32565">
        <ele>2012.2</ele>
        <time>2017-03-22T11:08:42Z</time>
      </trkpt>
      <trkpt lat="42.82848" lon="-0.32458">
        <ele>2054.5</ele>
        <time>2017-03-22T11:14:40Z</time>
      </trkpt>
      <trkpt lat="42.82854" lon="-0.32458">
        <ele>2055</ele>
        <time>2017-03-22T11:14:58Z</time>
      </trkpt>
      <trkpt lat="42.82854" lon="-0.32457">
        <ele>2055</ele>
        <time>2017-03-22T11:15:10Z</time>
      </trkpt>
      <trkpt lat="42.82856" lon="-0.32463">
        <ele>2055</ele>
        <time>2017-03-22T11:15:39Z</time>
      </trkpt>
      <trkpt lat="42.82854" lon="-0.32457">
        <ele>2054</ele>
        <time>2017-03-22T11:16:40Z</time>
      </trkpt>
      <trkpt lat="42.82858" lon="-0.32457">
        <ele>2054</ele>
        <time>2017-03-22T11:17:08Z</time>
      </trkpt>
      <trkpt lat="42.82856" lon="-0.32458">
        <ele>2053.5</ele>
        <time>2017-03-22T11:17:35Z</time>
      </trkpt>
      <trkpt lat="42.82859" lon="-0.32467">
        <ele>2054</ele>
        <time>2017-03-22T11:18:01Z</time>
      </trkpt>
      <trkpt lat="42.82854" lon="-0.32456">
        <ele>2052.6</ele>
        <time>2017-03-22T11:19:31Z</time>
      </trkpt>
      <trkpt lat="42.82861" lon="-0.32459">
        <ele>2053</ele>
        <time>2017-03-22T11:20:08Z</time>
      </trkpt>
      <trkpt lat="42.82854" lon="-0.32455">
        <ele>2053.5</ele>
        <time>2017-03-22T11:20:49Z</time>
      </trkpt>
      <trkpt lat="42.82859" lon="-0.32461">
        <ele>2053</ele>
        <time>2017-03-22T11:21:15Z</time>
      </trkpt>
      <trkpt lat="42.82851" lon="-0.32449">
        <ele>2054.5</ele>
        <time>2017-03-22T11:22:27Z</time>
      </trkpt>
      <trkpt lat="42.82881" lon="-0.32472">
        <ele>2060.7</ele>
        <time>2017-03-22T11:27:36Z</time>
      </trkpt>
      <trkpt lat="42.82876" lon="-0.32473">
        <ele>2061.2</ele>
        <time>2017-03-22T11:28:04Z</time>
      </trkpt>
      <trkpt lat="42.82876" lon="-0.32487">
        <ele>2063.6</ele>
        <time>2017-03-22T11:28:24Z</time>
      </trkpt>
      <trkpt lat="42.82887" lon="-0.32488">
        <ele>2070.3</ele>
        <time>2017-03-22T11:29:22Z</time>
      </trkpt>
      <trkpt lat="42.82895" lon="-0.32476">
        <ele>2075.1</ele>
        <time>2017-03-22T11:29:59Z</time>
      </trkpt>
      <trkpt lat="42.82899" lon="-0.32496">
        <ele>2079</ele>
        <time>2017-03-22T11:30:55Z</time>
      </trkpt>
      <trkpt lat="42.82917" lon="-0.32461">
        <ele>2090.5</ele>
        <time>2017-03-22T11:32:58Z</time>
      </trkpt>
      <trkpt lat="42.82933" lon="-0.32516">
        <ele>2103.5</ele>
        <time>2017-03-22T11:35:20Z</time>
      </trkpt>
      <trkpt lat="42.82932" lon="-0.32514">
        <ele>2103.5</ele>
        <time>2017-03-22T11:36:00Z</time>
      </trkpt>
      <trkpt lat="42.82935" lon="-0.32537">
        <ele>2107.8</ele>
        <time>2017-03-22T11:36:42Z</time>
      </trkpt>
      <trkpt lat="42.82947" lon="-0.32514">
        <ele>2114.1</ele>
        <time>2017-03-22T11:37:44Z</time>
      </trkpt>
      <trkpt lat="42.82963" lon="-0.32562">
        <ele>2125.6</ele>
        <time>2017-03-22T11:39:09Z</time>
      </trkpt>
      <trkpt lat="42.82961" lon="-0.32564">
        <ele>2125.1</ele>
        <time>2017-03-22T11:39:30Z</time>
      </trkpt>
      <trkpt lat="42.82969" lon="-0.32534">
        <ele>2129</ele>
        <time>2017-03-22T11:40:51Z</time>
      </trkpt>
      <trkpt lat="42.82967" lon="-0.32534">
        <ele>2129.9</ele>
        <time>2017-03-22T11:41:03Z</time>
      </trkpt>
      <trkpt lat="42.82981" lon="-0.32557">
        <ele>2134.7</ele>
        <time>2017-03-22T11:41:45Z</time>
      </trkpt>
      <trkpt lat="42.82979" lon="-0.32558">
        <ele>2134.7</ele>
        <time>2017-03-22T11:42:44Z</time>
      </trkpt>
      <trkpt lat="42.82982" lon="-0.32532">
        <ele>2140.5</ele>
        <time>2017-03-22T11:43:41Z</time>
      </trkpt>
      <trkpt lat="42.82995" lon="-0.32553">
        <ele>2140.5</ele>
        <time>2017-03-22T11:44:21Z</time>
      </trkpt>
      <trkpt lat="42.82995" lon="-0.32552">
        <ele>2142.4</ele>
        <time>2017-03-22T11:44:23Z</time>
      </trkpt>
      <trkpt lat="42.82992" lon="-0.32549">
        <ele>2138.1</ele>
        <time>2017-03-22T11:44:42Z</time>
      </trkpt>
      <trkpt lat="42.8299" lon="-0.32551">
        <ele>2151.6</ele>
        <time>2017-03-22T11:44:50Z</time>
      </trkpt>
      <trkpt lat="42.83003" lon="-0.32565">
        <ele>2145.3</ele>
        <time>2017-03-22T11:45:33Z</time>
      </trkpt>
      <trkpt lat="42.83003" lon="-0.32529">
        <ele>2152.5</ele>
        <time>2017-03-22T11:46:38Z</time>
      </trkpt>
      <trkpt lat="42.83016" lon="-0.32552">
        <ele>2156.9</ele>
        <time>2017-03-22T11:47:42Z</time>
      </trkpt>
      <trkpt lat="42.83018" lon="-0.32518">
        <ele>2162.6</ele>
        <time>2017-03-22T11:49:10Z</time>
      </trkpt>
      <trkpt lat="42.83033" lon="-0.32557">
        <ele>2169.8</ele>
        <time>2017-03-22T11:51:22Z</time>
      </trkpt>
      <trkpt lat="42.83034" lon="-0.32552">
        <ele>2170.8</ele>
        <time>2017-03-22T11:51:44Z</time>
      </trkpt>
      <trkpt lat="42.83028" lon="-0.32553">
        <ele>2171.3</ele>
        <time>2017-03-22T11:52:07Z</time>
      </trkpt>
      <trkpt lat="42.83035" lon="-0.32531">
        <ele>2174.6</ele>
        <time>2017-03-22T11:52:53Z</time>
      </trkpt>
      <trkpt lat="42.83044" lon="-0.32552">
        <ele>2178</ele>
        <time>2017-03-22T11:53:36Z</time>
      </trkpt>
      <trkpt lat="42.83043" lon="-0.32534">
        <ele>2181.4</ele>
        <time>2017-03-22T11:54:18Z</time>
      </trkpt>
      <trkpt lat="42.83052" lon="-0.32554">
        <ele>2183.3</ele>
        <time>2017-03-22T11:55:10Z</time>
      </trkpt>
      <trkpt lat="42.83068" lon="-0.32326">
        <ele>2225.1</ele>
        <time>2017-03-22T12:03:22Z</time>
      </trkpt>
      <trkpt lat="42.83067" lon="-0.32329">
        <ele>2225.1</ele>
        <time>2017-03-22T12:04:31Z</time>
      </trkpt>
      <trkpt lat="42.83099" lon="-0.32306">
        <ele>2235.2</ele>
        <time>2017-03-22T12:07:03Z</time>
      </trkpt>
      <trkpt lat="42.83155" lon="-0.32339">
        <ele>2250.6</ele>
        <time>2017-03-22T12:09:51Z</time>
      </trkpt>
      <trkpt lat="42.83154" lon="-0.32338">
        <ele>2242.4</ele>
        <time>2017-03-22T12:09:57Z</time>
      </trkpt>
      <trkpt lat="42.83155" lon="-0.32338">
        <ele>2253</ele>
        <time>2017-03-22T12:09:58Z</time>
      </trkpt>
      <trkpt lat="42.83154" lon="-0.32337">
        <ele>2250.6</ele>
        <time>2017-03-22T12:09:59Z</time>
      </trkpt>
      <trkpt lat="42.83173" lon="-0.32363">
        <ele>2255.4</ele>
        <time>2017-03-22T12:11:39Z</time>
      </trkpt>
      <trkpt lat="42.83171" lon="-0.32323">
        <ele>2267.9</ele>
        <time>2017-03-22T12:13:30Z</time>
      </trkpt>
      <trkpt lat="42.83184" lon="-0.32328">
        <ele>2269.8</ele>
        <time>2017-03-22T12:13:48Z</time>
      </trkpt>
      <trkpt lat="42.83191" lon="-0.323">
        <ele>2280.9</ele>
        <time>2017-03-22T12:15:27Z</time>
      </trkpt>
      <trkpt lat="42.83191" lon="-0.32302">
        <ele>2279.4</ele>
        <time>2017-03-22T12:15:58Z</time>
      </trkpt>
      <trkpt lat="42.83193" lon="-0.323">
        <ele>2279.9</ele>
        <time>2017-03-22T12:16:56Z</time>
      </trkpt>
      <trkpt lat="42.83192" lon="-0.32301">
        <ele>2278.9</ele>
        <time>2017-03-22T12:17:27Z</time>
      </trkpt>
      <trkpt lat="42.83246" lon="-0.322">
        <ele>2287.1</ele>
        <time>2017-03-22T12:21:06Z</time>
      </trkpt>
      <trkpt lat="42.83236" lon="-0.3215">
        <ele>2277</ele>
        <time>2017-03-22T12:23:10Z</time>
      </trkpt>
      <trkpt lat="42.83237" lon="-0.32151">
        <ele>2276.5</ele>
        <time>2017-03-22T12:23:30Z</time>
      </trkpt>
      <trkpt lat="42.83229" lon="-0.3215">
        <ele>2273.7</ele>
        <time>2017-03-22T12:24:19Z</time>
      </trkpt>
      <trkpt lat="42.83232" lon="-0.32148">
        <ele>2275.1</ele>
        <time>2017-03-22T12:24:47Z</time>
      </trkpt>
      <trkpt lat="42.8323" lon="-0.32146">
        <ele>2276.1</ele>
        <time>2017-03-22T12:24:50Z</time>
      </trkpt>
      <trkpt lat="42.83237" lon="-0.32146">
        <ele>2277</ele>
        <time>2017-03-22T12:25:13Z</time>
      </trkpt>
      <trkpt lat="42.83232" lon="-0.32147">
        <ele>2275.1</ele>
        <time>2017-03-22T12:25:54Z</time>
      </trkpt>
      <trkpt lat="42.83232" lon="-0.32145">
        <ele>2277</ele>
        <time>2017-03-22T12:26:01Z</time>
      </trkpt>
      <trkpt lat="42.8324" lon="-0.32145">
        <ele>2277</ele>
        <time>2017-03-22T12:26:58Z</time>
      </trkpt>
      <trkpt lat="42.83232" lon="-0.32148">
        <ele>2276.5</ele>
        <time>2017-03-22T12:27:23Z</time>
      </trkpt>
      <trkpt lat="42.83241" lon="-0.32153">
        <ele>2277</ele>
        <time>2017-03-22T12:28:29Z</time>
      </trkpt>
      <trkpt lat="42.83236" lon="-0.32152">
        <ele>2278.9</ele>
        <time>2017-03-22T12:28:44Z</time>
      </trkpt>
      <trkpt lat="42.83237" lon="-0.32149">
        <ele>2278</ele>
        <time>2017-03-22T12:29:04Z</time>
      </trkpt>
      <trkpt lat="42.83277" lon="-0.32203">
        <ele>2293.4</ele>
        <time>2017-03-22T12:32:00Z</time>
      </trkpt>
      <trkpt lat="42.83562" lon="-0.31887">
        <ele>2325.6</ele>
        <time>2017-03-22T12:46:14Z</time>
      </trkpt>
      <trkpt lat="42.83562" lon="-0.31885">
        <ele>2328</ele>
        <time>2017-03-22T12:46:19Z</time>
      </trkpt>
      <trkpt lat="42.83561" lon="-0.31887">
        <ele>2326.1</ele>
        <time>2017-03-22T12:46:34Z</time>
      </trkpt>
      <trkpt lat="42.83599" lon="-0.31838">
        <ele>2313.6</ele>
        <time>2017-03-22T12:48:13Z</time>
      </trkpt>
      <trkpt lat="42.83596" lon="-0.31843">
        <ele>2315</ele>
        <time>2017-03-22T12:48:40Z</time>
      </trkpt>
      <trkpt lat="42.8369" lon="-0.31769">
        <ele>2294.3</ele>
        <time>2017-03-22T12:51:49Z</time>
      </trkpt>
      <trkpt lat="42.83684" lon="-0.3177">
        <ele>2295.8</ele>
        <time>2017-03-22T12:54:02Z</time>
      </trkpt>
      <trkpt lat="42.8379" lon="-0.31738">
        <ele>2272.7</ele>
        <time>2017-03-22T12:57:37Z</time>
      </trkpt>
      <trkpt lat="42.83784" lon="-0.31746">
        <ele>2273.7</ele>
        <time>2017-03-22T12:58:18Z</time>
      </trkpt>
      <trkpt lat="42.83784" lon="-0.31746">
        <ele>2272.7</ele>
        <time>2017-03-22T12:58:19Z</time>
      </trkpt>
      <trkpt lat="42.83776" lon="-0.31763">
        <ele>2270.8</ele>
        <time>2017-03-22T12:58:39Z</time>
      </trkpt>
      <trkpt lat="42.83835" lon="-0.31565">
        <ele>2235.2</ele>
        <time>2017-03-22T12:59:49Z</time>
      </trkpt>
      <trkpt lat="42.83838" lon="-0.31569">
        <ele>2235.7</ele>
        <time>2017-03-22T13:00:34Z</time>
      </trkpt>
      <trkpt lat="42.83838" lon="-0.31566">
        <ele>2236.2</ele>
        <time>2017-03-22T13:01:07Z</time>
      </trkpt>
      <trkpt lat="42.83836" lon="-0.31567">
        <ele>2235.7</ele>
        <time>2017-03-22T13:01:37Z</time>
      </trkpt>
      <trkpt lat="42.8384" lon="-0.31574">
        <ele>2236.2</ele>
        <time>2017-03-22T13:02:41Z</time>
      </trkpt>
      <trkpt lat="42.84026" lon="-0.31329">
        <ele>2238.1</ele>
        <time>2017-03-22T13:08:51Z</time>
      </trkpt>
      <trkpt lat="42.84073" lon="-0.31394">
        <ele>2254.9</ele>
        <time>2017-03-22T13:11:22Z</time>
      </trkpt>
      <trkpt lat="42.84084" lon="-0.31389">
        <ele>2259.2</ele>
        <time>2017-03-22T13:12:00Z</time>
      </trkpt>
      <trkpt lat="42.84081" lon="-0.31388">
        <ele>2254</ele>
        <time>2017-03-22T13:12:29Z</time>
      </trkpt>
      <trkpt lat="42.84085" lon="-0.31392">
        <ele>2258.3</ele>
        <time>2017-03-22T13:13:01Z</time>
      </trkpt>
      <trkpt lat="42.8408" lon="-0.31388">
        <ele>2248.7</ele>
        <time>2017-03-22T13:13:42Z</time>
      </trkpt>
      <trkpt lat="42.8408" lon="-0.31388">
        <ele>2262.1</ele>
        <time>2017-03-22T13:13:43Z</time>
      </trkpt>
      <trkpt lat="42.8408" lon="-0.31388">
        <ele>2257.3</ele>
        <time>2017-03-22T13:13:44Z</time>
      </trkpt>
      <trkpt lat="42.84082" lon="-0.31388">
        <ele>2257.3</ele>
        <time>2017-03-22T13:14:07Z</time>
      </trkpt>
      <trkpt lat="42.84077" lon="-0.31383">
        <ele>2256.8</ele>
        <time>2017-03-22T13:14:51Z</time>
      </trkpt>
      <trkpt lat="42.84078" lon="-0.31385">
        <ele>2256.4</ele>
        <time>2017-03-22T13:15:47Z</time>
      </trkpt>
      <trkpt lat="42.84075" lon="-0.31381">
        <ele>2256.8</ele>
        <time>2017-03-22T13:16:15Z</time>
      </trkpt>
      <trkpt lat="42.84079" lon="-0.31384">
        <ele>2256.8</ele>
        <time>2017-03-22T13:17:09Z</time>
      </trkpt>
      <trkpt lat="42.84075" lon="-0.31382">
        <ele>2257.3</ele>
        <time>2017-03-22T13:17:45Z</time>
      </trkpt>
      <trkpt lat="42.84077" lon="-0.31384">
        <ele>2256.8</ele>
        <time>2017-03-22T13:18:13Z</time>
      </trkpt>
      <trkpt lat="42.84078" lon="-0.31382">
        <ele>2257.3</ele>
        <time>2017-03-22T13:18:44Z</time>
      </trkpt>
      <trkpt lat="42.84077" lon="-0.31383">
        <ele>2257.3</ele>
        <time>2017-03-22T13:19:12Z</time>
      </trkpt>
      <trkpt lat="42.84079" lon="-0.31384">
        <ele>2257.8</ele>
        <time>2017-03-22T13:19:39Z</time>
      </trkpt>
      <trkpt lat="42.84076" lon="-0.31384">
        <ele>2256.8</ele>
        <time>2017-03-22T13:20:07Z</time>
      </trkpt>
      <trkpt lat="42.84078" lon="-0.31382">
        <ele>2258.3</ele>
        <time>2017-03-22T13:21:16Z</time>
      </trkpt>
      <trkpt lat="42.84077" lon="-0.31384">
        <ele>2258.3</ele>
        <time>2017-03-22T13:22:02Z</time>
      </trkpt>
      <trkpt lat="42.84077" lon="-0.31383">
        <ele>2257.8</ele>
        <time>2017-03-22T13:22:30Z</time>
      </trkpt>
      <trkpt lat="42.84077" lon="-0.31383">
        <ele>2257.3</ele>
        <time>2017-03-22T13:23:04Z</time>
      </trkpt>
      <trkpt lat="42.84078" lon="-0.31381">
        <ele>2258.3</ele>
        <time>2017-03-22T13:24:05Z</time>
      </trkpt>
      <trkpt lat="42.84079" lon="-0.31382">
        <ele>2256.4</ele>
        <time>2017-03-22T13:24:37Z</time>
      </trkpt>
      <trkpt lat="42.84077" lon="-0.31385">
        <ele>2257.8</ele>
        <time>2017-03-22T13:25:31Z</time>
      </trkpt>
      <trkpt lat="42.84078" lon="-0.31384">
        <ele>2257.3</ele>
        <time>2017-03-22T13:25:55Z</time>
      </trkpt>
      <trkpt lat="42.84077" lon="-0.31387">
        <ele>2257.8</ele>
        <time>2017-03-22T13:26:16Z</time>
      </trkpt>
      <trkpt lat="42.84077" lon="-0.31385">
        <ele>2257.8</ele>
        <time>2017-03-22T13:26:46Z</time>
      </trkpt>
      <trkpt lat="42.84076" lon="-0.31386">
        <ele>2257.8</ele>
        <time>2017-03-22T13:27:07Z</time>
      </trkpt>
      <trkpt lat="42.84078" lon="-0.31388">
        <ele>2257.8</ele>
        <time>2017-03-22T13:27:30Z</time>
      </trkpt>
      <trkpt lat="42.84074" lon="-0.31384">
        <ele>2256.8</ele>
        <time>2017-03-22T13:28:17Z</time>
      </trkpt>
      <trkpt lat="42.84079" lon="-0.31388">
        <ele>2257.8</ele>
        <time>2017-03-22T13:28:35Z</time>
      </trkpt>
      <trkpt lat="42.84079" lon="-0.31386">
        <ele>2258.3</ele>
        <time>2017-03-22T13:29:02Z</time>
      </trkpt>
      <trkpt lat="42.84084" lon="-0.31389">
        <ele>2259.7</ele>
        <time>2017-03-22T13:29:34Z</time>
      </trkpt>
      <trkpt lat="42.84101" lon="-0.31312">
        <ele>2274.1</ele>
        <time>2017-03-22T13:32:21Z</time>
      </trkpt>
      <trkpt lat="42.84124" lon="-0.31327">
        <ele>2278</ele>
        <time>2017-03-22T13:32:59Z</time>
      </trkpt>
      <trkpt lat="42.84114" lon="-0.31301">
        <ele>2284.2</ele>
        <time>2017-03-22T13:33:54Z</time>
      </trkpt>
      <trkpt lat="42.84119" lon="-0.31302">
        <ele>2283.8</ele>
        <time>2017-03-22T13:34:16Z</time>
      </trkpt>
      <trkpt lat="42.84122" lon="-0.31294">
        <ele>2284.7</ele>
        <time>2017-03-22T13:34:44Z</time>
      </trkpt>
      <trkpt lat="42.84116" lon="-0.31298">
        <ele>2284.7</ele>
        <time>2017-03-22T13:35:07Z</time>
      </trkpt>
      <trkpt lat="42.84132" lon="-0.31304">
        <ele>2287.1</ele>
        <time>2017-03-22T13:35:30Z</time>
      </trkpt>
      <trkpt lat="42.84135" lon="-0.313">
        <ele>2290.5</ele>
        <time>2017-03-22T13:35:49Z</time>
      </trkpt>
      <trkpt lat="42.84127" lon="-0.31292">
        <ele>2292.4</ele>
        <time>2017-03-22T13:36:14Z</time>
      </trkpt>
      <trkpt lat="42.84132" lon="-0.31289">
        <ele>2292.9</ele>
        <time>2017-03-22T13:36:36Z</time>
      </trkpt>
      <trkpt lat="42.84155" lon="-0.31307">
        <ele>2298.2</ele>
        <time>2017-03-22T13:37:20Z</time>
      </trkpt>
      <trkpt lat="42.84149" lon="-0.31284">
        <ele>2305.4</ele>
        <time>2017-03-22T13:38:23Z</time>
      </trkpt>
      <trkpt lat="42.84174" lon="-0.31302">
        <ele>2310.2</ele>
        <time>2017-03-22T13:39:24Z</time>
      </trkpt>
      <trkpt lat="42.84169" lon="-0.3128">
        <ele>2315</ele>
        <time>2017-03-22T13:40:06Z</time>
      </trkpt>
      <trkpt lat="42.84189" lon="-0.31294">
        <ele>2320.3</ele>
        <time>2017-03-22T13:41:06Z</time>
      </trkpt>
      <trkpt lat="42.84188" lon="-0.31299">
        <ele>2321.2</ele>
        <time>2017-03-22T13:41:37Z</time>
      </trkpt>
      <trkpt lat="42.84188" lon="-0.31276">
        <ele>2327</ele>
        <time>2017-03-22T13:42:21Z</time>
      </trkpt>
      <trkpt lat="42.84201" lon="-0.31284">
        <ele>2330.9</ele>
        <time>2017-03-22T13:43:09Z</time>
      </trkpt>
      <trkpt lat="42.84204" lon="-0.31259">
        <ele>2338.1</ele>
        <time>2017-03-22T13:44:22Z</time>
      </trkpt>
      <trkpt lat="42.84221" lon="-0.31274">
        <ele>2345.3</ele>
        <time>2017-03-22T13:45:09Z</time>
      </trkpt>
      <trkpt lat="42.84223" lon="-0.31254">
        <ele>2348.6</ele>
        <time>2017-03-22T13:45:41Z</time>
      </trkpt>
      <trkpt lat="42.84243" lon="-0.31298">
        <ele>2359.2</ele>
        <time>2017-03-22T13:47:12Z</time>
      </trkpt>
      <trkpt lat="42.84246" lon="-0.31294">
        <ele>2360.2</ele>
        <time>2017-03-22T13:47:44Z</time>
      </trkpt>
      <trkpt lat="42.84243" lon="-0.31296">
        <ele>2360.7</ele>
        <time>2017-03-22T13:48:04Z</time>
      </trkpt>
      <trkpt lat="42.84283" lon="-0.31263">
        <ele>2370.3</ele>
        <time>2017-03-22T13:49:51Z</time>
      </trkpt>
      <trkpt lat="42.84292" lon="-0.31405">
        <ele>2398.2</ele>
        <time>2017-03-22T13:54:26Z</time>
      </trkpt>
      <trkpt lat="42.84356" lon="-0.31413">
        <ele>2425.5</ele>
        <time>2017-03-22T14:00:18Z</time>
      </trkpt>
      <trkpt lat="42.84358" lon="-0.3145">
        <ele>2433.2</ele>
        <time>2017-03-22T14:01:53Z</time>
      </trkpt>
      <trkpt lat="42.84368" lon="-0.31432">
        <ele>2437.6</ele>
        <time>2017-03-22T14:02:32Z</time>
      </trkpt>
      <trkpt lat="42.84376" lon="-0.31461">
        <ele>2443.3</ele>
        <time>2017-03-22T14:03:35Z</time>
      </trkpt>
      <trkpt lat="42.8437" lon="-0.31459">
        <ele>2444.3</ele>
        <time>2017-03-22T14:03:58Z</time>
      </trkpt>
      <trkpt lat="42.84376" lon="-0.31452">
        <ele>2447.7</ele>
        <time>2017-03-22T14:04:43Z</time>
      </trkpt>
      <trkpt lat="42.84373" lon="-0.31544">
        <ele>2466.4</ele>
        <time>2017-03-22T14:07:43Z</time>
      </trkpt>
      <trkpt lat="42.84369" lon="-0.31544">
        <ele>2465</ele>
        <time>2017-03-22T14:08:04Z</time>
      </trkpt>
      <trkpt lat="42.84372" lon="-0.31547">
        <ele>2465.4</ele>
        <time>2017-03-22T14:08:29Z</time>
      </trkpt>
      <trkpt lat="42.8437" lon="-0.31546">
        <ele>2465.9</ele>
        <time>2017-03-22T14:09:30Z</time>
      </trkpt>
      <trkpt lat="42.84371" lon="-0.31548">
        <ele>2466.4</ele>
        <time>2017-03-22T14:10:56Z</time>
      </trkpt>
      <trkpt lat="42.84389" lon="-0.31554">
        <ele>2467.8</ele>
        <time>2017-03-22T14:11:34Z</time>
      </trkpt>
      <trkpt lat="42.84386" lon="-0.31548">
        <ele>2469.8</ele>
        <time>2017-03-22T14:11:56Z</time>
      </trkpt>
      <trkpt lat="42.84412" lon="-0.31589">
        <ele>2484.7</ele>
        <time>2017-03-22T14:14:27Z</time>
      </trkpt>
      <trkpt lat="42.84397" lon="-0.3161">
        <ele>2492.8</ele>
        <time>2017-03-22T14:15:26Z</time>
      </trkpt>
      <trkpt lat="42.84392" lon="-0.31747">
        <ele>2529.9</ele>
        <time>2017-03-22T14:21:55Z</time>
      </trkpt>
      <trkpt lat="42.84392" lon="-0.31746">
        <ele>2528.4</ele>
        <time>2017-03-22T14:22:06Z</time>
      </trkpt>
      <trkpt lat="42.84391" lon="-0.31747">
        <ele>2523.6</ele>
        <time>2017-03-22T14:22:17Z</time>
      </trkpt>
      <trkpt lat="42.84431" lon="-0.31782">
        <ele>2499.1</ele>
        <time>2017-03-22T14:23:54Z</time>
      </trkpt>
      <trkpt lat="42.8443" lon="-0.31781">
        <ele>2498.6</ele>
        <time>2017-03-22T14:24:11Z</time>
      </trkpt>
      <trkpt lat="42.84432" lon="-0.31778">
        <ele>2497.6</ele>
        <time>2017-03-22T14:24:33Z</time>
      </trkpt>
      <trkpt lat="42.84431" lon="-0.31777">
        <ele>2498.6</ele>
        <time>2017-03-22T14:24:57Z</time>
      </trkpt>
      <trkpt lat="42.84434" lon="-0.31781">
        <ele>2498.6</ele>
        <time>2017-03-22T14:25:49Z</time>
      </trkpt>
      <trkpt lat="42.84433" lon="-0.31778">
        <ele>2497.6</ele>
        <time>2017-03-22T14:26:09Z</time>
      </trkpt>
      <trkpt lat="42.84435" lon="-0.31778">
        <ele>2498.1</ele>
        <time>2017-03-22T14:26:32Z</time>
      </trkpt>
      <trkpt lat="42.84432" lon="-0.31779">
        <ele>2497.6</ele>
        <time>2017-03-22T14:26:56Z</time>
      </trkpt>
      <trkpt lat="42.84433" lon="-0.31785">
        <ele>2497.6</ele>
        <time>2017-03-22T14:27:19Z</time>
      </trkpt>
      <trkpt lat="42.84435" lon="-0.31781">
        <ele>2498.6</ele>
        <time>2017-03-22T14:27:38Z</time>
      </trkpt>
      <trkpt lat="42.84433" lon="-0.3178">
        <ele>2499.6</ele>
        <time>2017-03-22T14:28:01Z</time>
      </trkpt>
      <trkpt lat="42.84433" lon="-0.31782">
        <ele>2500.1</ele>
        <time>2017-03-22T14:28:25Z</time>
      </trkpt>
      <trkpt lat="42.84431" lon="-0.3178">
        <ele>2498.6</ele>
        <time>2017-03-22T14:28:46Z</time>
      </trkpt>
      <trkpt lat="42.84434" lon="-0.31781">
        <ele>2498.1</ele>
        <time>2017-03-22T14:29:32Z</time>
      </trkpt>
      <trkpt lat="42.84433" lon="-0.31777">
        <ele>2498.1</ele>
        <time>2017-03-22T14:30:05Z</time>
      </trkpt>
      <trkpt lat="42.84434" lon="-0.31777">
        <ele>2499.6</ele>
        <time>2017-03-22T14:30:32Z</time>
      </trkpt>
      <trkpt lat="42.84435" lon="-0.31777">
        <ele>2500.1</ele>
        <time>2017-03-22T14:30:36Z</time>
      </trkpt>
      <trkpt lat="42.84435" lon="-0.31775">
        <ele>2500.1</ele>
        <time>2017-03-22T14:30:43Z</time>
      </trkpt>
      <trkpt lat="42.84442" lon="-0.31767">
        <ele>2517.8</ele>
        <time>2017-03-22T14:30:55Z</time>
      </trkpt>
      <trkpt lat="42.8444" lon="-0.31774">
        <ele>2502.9</ele>
        <time>2017-03-22T14:31:00Z</time>
      </trkpt>
      <trkpt lat="42.84445" lon="-0.31771">
        <ele>2499.6</ele>
        <time>2017-03-22T14:31:11Z</time>
      </trkpt>
      <trkpt lat="42.84439" lon="-0.31778">
        <ele>2506.3</ele>
        <time>2017-03-22T14:31:12Z</time>
      </trkpt>
      <trkpt lat="42.84439" lon="-0.31777">
        <ele>2499.6</ele>
        <time>2017-03-22T14:31:13Z</time>
      </trkpt>
      <trkpt lat="42.84432" lon="-0.31775">
        <ele>2496.7</ele>
        <time>2017-03-22T14:31:15Z</time>
      </trkpt>
      <trkpt lat="42.8443" lon="-0.31781">
        <ele>2495.7</ele>
        <time>2017-03-22T14:32:03Z</time>
      </trkpt>
      <trkpt lat="42.84427" lon="-0.31779">
        <ele>2495.2</ele>
        <time>2017-03-22T14:32:27Z</time>
      </trkpt>
      <trkpt lat="42.8443" lon="-0.31776">
        <ele>2496.7</ele>
        <time>2017-03-22T14:32:47Z</time>
      </trkpt>
      <trkpt lat="42.84432" lon="-0.31785">
        <ele>2498.1</ele>
        <time>2017-03-22T14:33:19Z</time>
      </trkpt>
      <trkpt lat="42.84433" lon="-0.31785">
        <ele>2496.2</ele>
        <time>2017-03-22T14:33:25Z</time>
      </trkpt>
      <trkpt lat="42.8443" lon="-0.31787">
        <ele>2500.1</ele>
        <time>2017-03-22T14:33:43Z</time>
      </trkpt>
      <trkpt lat="42.84431" lon="-0.31784">
        <ele>2500.1</ele>
        <time>2017-03-22T14:33:44Z</time>
      </trkpt>
      <trkpt lat="42.84435" lon="-0.31793">
        <ele>2498.6</ele>
        <time>2017-03-22T14:34:04Z</time>
      </trkpt>
      <trkpt lat="42.84435" lon="-0.31786">
        <ele>2495.2</ele>
        <time>2017-03-22T14:34:12Z</time>
      </trkpt>
      <trkpt lat="42.84432" lon="-0.31787">
        <ele>2490.4</ele>
        <time>2017-03-22T14:34:22Z</time>
      </trkpt>
      <trkpt lat="42.84433" lon="-0.31787">
        <ele>2505.8</ele>
        <time>2017-03-22T14:34:25Z</time>
      </trkpt>
      <trkpt lat="42.84432" lon="-0.31788">
        <ele>2496.7</ele>
        <time>2017-03-22T14:34:28Z</time>
      </trkpt>
      <trkpt lat="42.84429" lon="-0.31782">
        <ele>2494.3</ele>
        <time>2017-03-22T14:34:44Z</time>
      </trkpt>
      <trkpt lat="42.84429" lon="-0.31782">
        <ele>2495.7</ele>
        <time>2017-03-22T14:34:48Z</time>
      </trkpt>
      <trkpt lat="42.84429" lon="-0.31796">
        <ele>2495.7</ele>
        <time>2017-03-22T14:36:05Z</time>
      </trkpt>
      <trkpt lat="42.8443" lon="-0.31794">
        <ele>2495.7</ele>
        <time>2017-03-22T14:36:22Z</time>
      </trkpt>
      <trkpt lat="42.84468" lon="-0.31887">
        <ele>2456.8</ele>
        <time>2017-03-22T14:38:18Z</time>
      </trkpt>
      <trkpt lat="42.84466" lon="-0.31881">
        <ele>2456.8</ele>
        <time>2017-03-22T14:38:39Z</time>
      </trkpt>
      <trkpt lat="42.84574" lon="-0.32014">
        <ele>2408.7</ele>
        <time>2017-03-22T14:39:42Z</time>
      </trkpt>
      <trkpt lat="42.84622" lon="-0.32419">
        <ele>2353.4</ele>
        <time>2017-03-22T14:40:49Z</time>
      </trkpt>
      <trkpt lat="42.84625" lon="-0.32418">
        <ele>2352.5</ele>
        <time>2017-03-22T14:41:09Z</time>
      </trkpt>
      <trkpt lat="42.84575" lon="-0.32498">
        <ele>2305.4</ele>
        <time>2017-03-22T14:42:19Z</time>
      </trkpt>
      <trkpt lat="42.84583" lon="-0.32487">
        <ele>2305.9</ele>
        <time>2017-03-22T14:42:37Z</time>
      </trkpt>
      <trkpt lat="42.84543" lon="-0.3256">
        <ele>2290.5</ele>
        <time>2017-03-22T14:43:25Z</time>
      </trkpt>
      <trkpt lat="42.84544" lon="-0.32559">
        <ele>2289</ele>
        <time>2017-03-22T14:43:57Z</time>
      </trkpt>
      <trkpt lat="42.84465" lon="-0.32631">
        <ele>2256.8</ele>
        <time>2017-03-22T14:44:53Z</time>
      </trkpt>
      <trkpt lat="42.84535" lon="-0.32806">
        <ele>2242.9</ele>
        <time>2017-03-22T14:47:03Z</time>
      </trkpt>
      <trkpt lat="42.84521" lon="-0.32872">
        <ele>2243.4</ele>
        <time>2017-03-22T14:48:29Z</time>
      </trkpt>
      <trkpt lat="42.84528" lon="-0.32867">
        <ele>2243.4</ele>
        <time>2017-03-22T14:48:47Z</time>
      </trkpt>
      <trkpt lat="42.84521" lon="-0.32874">
        <ele>2242.4</ele>
        <time>2017-03-22T14:49:48Z</time>
      </trkpt>
      <trkpt lat="42.84521" lon="-0.32872">
        <ele>2243.9</ele>
        <time>2017-03-22T14:49:51Z</time>
      </trkpt>
      <trkpt lat="42.8453" lon="-0.32951">
        <ele>2258.8</ele>
        <time>2017-03-22T14:53:59Z</time>
      </trkpt>
      <trkpt lat="42.84582" lon="-0.32924">
        <ele>2269.3</ele>
        <time>2017-03-22T14:56:45Z</time>
      </trkpt>
      <trkpt lat="42.84588" lon="-0.3291">
        <ele>2272.2</ele>
        <time>2017-03-22T14:57:09Z</time>
      </trkpt>
      <trkpt lat="42.84604" lon="-0.32905">
        <ele>2270.8</ele>
        <time>2017-03-22T14:57:48Z</time>
      </trkpt>
      <trkpt lat="42.84535" lon="-0.32951">
        <ele>2262.1</ele>
        <time>2017-03-22T14:59:46Z</time>
      </trkpt>
      <trkpt lat="42.84529" lon="-0.32949">
        <ele>2259.7</ele>
        <time>2017-03-22T14:59:51Z</time>
      </trkpt>
      <trkpt lat="42.84524" lon="-0.32894">
        <ele>2247.2</ele>
        <time>2017-03-22T15:00:42Z</time>
      </trkpt>
      <trkpt lat="42.84527" lon="-0.32908">
        <ele>2251.1</ele>
        <time>2017-03-22T15:00:58Z</time>
      </trkpt>
      <trkpt lat="42.84527" lon="-0.32908">
        <ele>2251.1</ele>
        <time>2017-03-22T15:00:59Z</time>
      </trkpt>
      <trkpt lat="42.84539" lon="-0.32937">
        <ele>2260.7</ele>
        <time>2017-03-22T15:01:51Z</time>
      </trkpt>
      <trkpt lat="42.84605" lon="-0.32903">
        <ele>2271.7</ele>
        <time>2017-03-22T15:03:56Z</time>
      </trkpt>
      <trkpt lat="42.84603" lon="-0.32912">
        <ele>2271.3</ele>
        <time>2017-03-22T15:04:28Z</time>
      </trkpt>
      <trkpt lat="42.84605" lon="-0.32911">
        <ele>2273.2</ele>
        <time>2017-03-22T15:04:34Z</time>
      </trkpt>
      <trkpt lat="42.84599" lon="-0.32892">
        <ele>2273.2</ele>
        <time>2017-03-22T15:05:59Z</time>
      </trkpt>
    </trkseg>
  </trk>
</gpx>